Saipan International Airport

Date: 2024-06-11 04:36:00Z

Type: SPECI

Weather: Light Rain

Winds: 110° at 8 kts

Visibility: 5

Ceiling (AGL FT): Clouds BROKEN at 1600, BROKEN at 4000, OVERCAST at 8000, OVERCAST at 4500

RAW METAR: PGSN 110436Z 11008KT 5SM -RA BR BKN016CB BKN040 28/26 A2989 RMK AO2 RAB25 CB W-NE MOV W P0003 T02830256 $

project-image